sensor_id;sensor_type;location;lat;lon;timestamp;P1;durP1;ratioP1;P2;durP2;ratioP2
16673;SDS011;8450;52.654;10.326;2023-05-07T05:18:46;6.80;;;6.20;;
16673;SDS011;8450;52.654;10.326;2023-05-07T05:21:14;8.13;;;7.43;;
16673;SDS011;8450;52.654;10.326;2023-05-07T05:23:42;6.40;;;5.83;;
16673;SDS011;8450;52.654;10.326;2023-05-07T05:26:07;6.80;;;6.20;;
16673;SDS011;8450;52.654;10.326;2023-05-07T05:28:33;7.83;;;7.13;;
16673;SDS011;8450;52.654;10.326;2023-05-07T05:30:59;6.10;;;5.60;;
16673;SDS011;8450;52.654;10.326;2023-05-07T05:33:26;6.73;;;6.13;;
16673;SDS011;8450;52.654;10.326;2023-05-07T05:35:53;7.43;;;6.73;;
16673;SDS011;8450;52.654;10.326;2023-05-07T05:38:19;8.53;;;7.73;;
16673;SDS011;8450;52.654;10.326;2023-05-07T05:40:46;7.90;;;7.20;;
16673;SDS011;8450;52.654;10.326;2023-05-07T05:43:13;8.30;;;7.50;;
16673;SDS011;8450;52.654;10.326;2023-05-07T05:45:39;8.03;;;7.27;;
16673;SDS011;8450;52.654;10.326;2023-05-07T05:48:05;7.63;;;6.90;;
16673;SDS011;8450;52.654;10.326;2023-05-07T05:50:31;8.77;;;7.90;;
16673;SDS011;8450;52.654;10.326;2023-05-07T05:52:57;7.13;;;6.43;;
16673;SDS011;8450;52.654;10.326;2023-05-07T05:55:25;7.07;;;6.47;;
16673;SDS011;8450;52.654;10.326;2023-05-07T05:57:51;8.10;;;7.30;;
16673;SDS011;8450;52.654;10.326;2023-05-07T06:00:18;7.00;;;6.40;;
16673;SDS011;8450;52.654;10.326;2023-05-07T06:02:53;7.77;;;7.17;;
16673;SDS011;8450;52.654;10.326;2023-05-07T06:05:23;6.80;;;6.20;;
16673;SDS011;8450;52.654;10.326;2023-05-07T06:07:51;7.70;;;7.00;;
16673;SDS011;8450;52.654;10.326;2023-05-07T06:10:17;7.57;;;6.87;;
16673;SDS011;8450;52.654;10.326;2023-05-07T06:12:43;7.63;;;7.00;;
16673;SDS011;8450;52.654;10.326;2023-05-07T06:15:10;6.80;;;6.10;;
16673;SDS011;8450;52.654;10.326;2023-05-07T06:17:36;7.97;;;7.27;;
16673;SDS011;8450;52.654;10.326;2023-05-07T06:20:01;7.70;;;7.00;;
16673;SDS011;8450;52.654;10.326;2023-05-07T06:22:27;7.10;;;6.43;;
16673;SDS011;8450;52.654;10.326;2023-05-07T06:24:53;7.20;;;6.43;;
16673;SDS011;8450;52.654;10.326;2023-05-07T06:27:19;8.30;;;7.60;;
16673;SDS011;8450;52.654;10.326;2023-05-07T06:29:47;8.63;;;7.83;;
16673;SDS011;8450;52.654;10.326;2023-05-07T06:32:15;9.57;;;7.30;;
16673;SDS011;8450;52.654;10.326;2023-05-07T06:34:43;8.27;;;7.57;;
16673;SDS011;8450;52.654;10.326;2023-05-07T06:37:08;9.57;;;7.87;;
16673;SDS011;8450;52.654;10.326;2023-05-07T06:40:04;9.20;;;8.30;;
16673;SDS011;8450;52.654;10.326;2023-05-07T06:42:35;9.17;;;8.13;;
16673;SDS011;8450;52.654;10.326;2023-05-07T06:45:20;8.83;;;7.63;;
16673;SDS011;8450;52.654;10.326;2023-05-07T06:47:46;8.23;;;7.43;;
16673;SDS011;8450;52.654;10.326;2023-05-07T06:50:11;8.97;;;8.17;;
16673;SDS011;8450;52.654;10.326;2023-05-07T06:52:37;8.47;;;7.60;;
16673;SDS011;8450;52.654;10.326;2023-05-07T06:55:04;8.60;;;7.77;;
16673;SDS011;8450;52.654;10.326;2023-05-07T06:57:31;8.53;;;7.73;;
16673;SDS011;8450;52.654;10.326;2023-05-07T06:59:57;10.07;;;8.33;;
16673;SDS011;8450;52.654;10.326;2023-05-07T07:02:22;8.07;;;7.33;;
16673;SDS011;8450;52.654;10.326;2023-05-07T07:04:49;9.67;;;8.77;;
16673;SDS011;8450;52.654;10.326;2023-05-07T07:07:15;8.30;;;7.50;;
16673;SDS011;8450;52.654;10.326;2023-05-07T07:09:43;9.77;;;8.50;;
16673;SDS011;8450;52.654;10.326;2023-05-07T07:12:09;8.07;;;7.27;;
16673;SDS011;8450;52.654;10.326;2023-05-07T07:14:37;9.33;;;8.40;;
16673;SDS011;8450;52.654;10.326;2023-05-07T07:17:03;11.20;;;10.00;;
16673;SDS011;8450;52.654;10.326;2023-05-07T07:19:30;9.90;;;9.00;;
16673;SDS011;8450;52.654;10.326;2023-05-07T07:21:57;8.80;;;8.00;;
16673;SDS011;8450;52.654;10.326;2023-05-07T07:24:22;10.07;;;8.40;;
16673;SDS011;8450;52.654;10.326;2023-05-07T07:26:53;8.63;;;7.77;;
16673;SDS011;8450;52.654;10.326;2023-05-07T07:29:20;9.13;;;8.20;;
16673;SDS011;8450;52.654;10.326;2023-05-07T07:31:47;9.83;;;8.83;;
16673;SDS011;8450;52.654;10.326;2023-05-07T07:34:14;8.30;;;7.50;;
16673;SDS011;8450;52.654;10.326;2023-05-07T07:36:39;7.57;;;6.87;;
16673;SDS011;8450;52.654;10.326;2023-05-07T07:39:05;8.10;;;7.30;;
16673;SDS011;8450;52.654;10.326;2023-05-07T07:41:31;7.43;;;6.73;;
16673;SDS011;8450;52.654;10.326;2023-05-07T07:43:57;8.23;;;7.33;;
16673;SDS011;8450;52.654;10.326;2023-05-07T07:46:22;8.47;;;7.67;;
16673;SDS011;8450;52.654;10.326;2023-05-07T07:48:48;9.23;;;8.23;;
16673;SDS011;8450;52.654;10.326;2023-05-07T07:51:14;8.00;;;7.20;;
16673;SDS011;8450;52.654;10.326;2023-05-07T07:53:39;7.87;;;7.10;;
16673;SDS011;8450;52.654;10.326;2023-05-07T07:56:06;8.10;;;7.30;;
16673;SDS011;8450;52.654;10.326;2023-05-07T07:58:33;8.83;;;7.97;;
16673;SDS011;8450;52.654;10.326;2023-05-07T08:01:00;7.97;;;7.17;;
16673;SDS011;8450;52.654;10.326;2023-05-07T08:03:26;8.30;;;7.47;;
16673;SDS011;8450;52.654;10.326;2023-05-07T08:05:56;7.90;;;7.10;;
16673;SDS011;8450;52.654;10.326;2023-05-07T08:08:23;7.20;;;6.50;;
16673;SDS011;8450;52.654;10.326;2023-05-07T08:10:49;7.40;;;6.70;;
16673;SDS011;8450;52.654;10.326;2023-05-07T08:13:22;7.43;;;6.80;;
16673;SDS011;8450;52.654;10.326;2023-05-07T08:15:47;7.40;;;6.70;;
16673;SDS011;8450;52.654;10.326;2023-05-07T08:18:13;6.67;;;6.07;;
16673;SDS011;8450;52.654;10.326;2023-05-07T08:20:39;7.53;;;6.83;;
16673;SDS011;8450;52.654;10.326;2023-05-07T08:23:07;7.53;;;6.83;;
16673;SDS011;8450;52.654;10.326;2023-05-07T08:25:33;7.77;;;7.07;;
16673;SDS011;8450;52.654;10.326;2023-05-07T08:27:59;7.00;;;6.33;;
16673;SDS011;8450;52.654;10.326;2023-05-07T08:30:25;6.90;;;6.20;;
16673;SDS011;8450;52.654;10.326;2023-05-07T08:32:52;7.67;;;6.97;;
16673;SDS011;8450;52.654;10.326;2023-05-07T08:35:17;8.07;;;7.03;;
16673;SDS011;8450;52.654;10.326;2023-05-07T08:37:43;7.43;;;6.83;;
16673;SDS011;8450;52.654;10.326;2023-05-07T08:40:09;8.03;;;7.33;;
16673;SDS011;8450;52.654;10.326;2023-05-07T08:42:36;7.17;;;6.47;;
16673;SDS011;8450;52.654;10.326;2023-05-07T08:45:03;7.50;;;6.80;;
16673;SDS011;8450;52.654;10.326;2023-05-07T08:47:34;7.60;;;6.90;;
16673;SDS011;8450;52.654;10.326;2023-05-07T08:50:07;7.13;;;6.43;;
16673;SDS011;8450;52.654;10.326;2023-05-07T08:52:33;7.80;;;7.07;;
16673;SDS011;8450;52.654;10.326;2023-05-07T08:55:00;7.80;;;7.10;;
16673;SDS011;8450;52.654;10.326;2023-05-07T08:57:27;7.37;;;6.77;;
16673;SDS011;8450;52.654;10.326;2023-05-07T08:59:53;8.00;;;7.20;;
16673;SDS011;8450;52.654;10.326;2023-05-07T09:02:19;7.63;;;6.83;;
16673;SDS011;8450;52.654;10.326;2023-05-07T09:04:45;7.03;;;6.43;;
16673;SDS011;8450;52.654;10.326;2023-05-07T09:07:10;7.13;;;6.53;;
16673;SDS011;8450;52.654;10.326;2023-05-07T09:09:40;7.53;;;6.63;;
16673;SDS011;8450;52.654;10.326;2023-05-07T09:12:06;7.07;;;6.37;;
16673;SDS011;8450;52.654;10.326;2023-05-07T09:14:33;6.43;;;5.83;;
16673;SDS011;8450;52.654;10.326;2023-05-07T09:17:00;6.97;;;6.30;;
16673;SDS011;8450;52.654;10.326;2023-05-07T09:19:26;7.07;;;6.37;;
16673;SDS011;8450;52.654;10.326;2023-05-07T09:21:57;6.37;;;5.87;;
16673;SDS011;8450;52.654;10.326;2023-05-07T09:24:25;6.33;;;5.77;;
16673;SDS011;8450;52.654;10.326;2023-05-07T09:26:50;5.93;;;5.43;;
16673;SDS011;8450;52.654;10.326;2023-05-07T09:29:16;6.37;;;5.70;;
16673;SDS011;8450;52.654;10.326;2023-05-07T09:31:42;5.63;;;5.13;;
16673;SDS011;8450;52.654;10.326;2023-05-07T09:34:12;5.70;;;5.20;;
16673;SDS011;8450;52.654;10.326;2023-05-07T09:36:40;5.47;;;4.97;;
16673;SDS011;8450;52.654;10.326;2023-05-07T09:39:05;6.10;;;5.60;;
16673;SDS011;8450;52.654;10.326;2023-05-07T09:41:31;5.47;;;4.97;;
16673;SDS011;8450;52.654;10.326;2023-05-07T09:44:06;5.07;;;4.60;;
16673;SDS011;8450;52.654;10.326;2023-05-07T09:46:36;5.23;;;4.83;;
16673;SDS011;8450;52.654;10.326;2023-05-07T09:49:16;5.17;;;4.77;;
16673;SDS011;8450;52.654;10.326;2023-05-07T09:51:50;5.67;;;5.13;;
16673;SDS011;8450;52.654;10.326;2023-05-07T09:54:19;5.60;;;5.10;;
16673;SDS011;8450;52.654;10.326;2023-05-07T09:56:48;5.40;;;4.90;;
16673;SDS011;8450;52.654;10.326;2023-05-07T09:59:15;5.77;;;5.27;;
16673;SDS011;8450;52.654;10.326;2023-05-07T10:01:42;5.07;;;4.67;;
16673;SDS011;8450;52.654;10.326;2023-05-07T10:04:10;5.37;;;4.90;;
16673;SDS011;8450;52.654;10.326;2023-05-07T10:06:36;5.33;;;4.93;;
16673;SDS011;8450;52.654;10.326;2023-05-07T10:09:03;5.40;;;5.00;;
16673;SDS011;8450;52.654;10.326;2023-05-07T10:11:33;5.50;;;5.10;;
16673;SDS011;8450;52.654;10.326;2023-05-07T10:14:01;5.20;;;4.80;;
16673;SDS011;8450;52.654;10.326;2023-05-07T10:16:34;5.50;;;5.00;;
16673;SDS011;8450;52.654;10.326;2023-05-07T10:19:03;5.57;;;5.07;;
16673;SDS011;8450;52.654;10.326;2023-05-07T10:21:30;5.63;;;5.13;;
16673;SDS011;8450;52.654;10.326;2023-05-07T10:24:00;5.13;;;4.73;;
16673;SDS011;8450;52.654;10.326;2023-05-07T10:26:35;5.30;;;4.83;;
16673;SDS011;8450;52.654;10.326;2023-05-07T10:29:05;5.30;;;4.90;;
16673;SDS011;8450;52.654;10.326;2023-05-07T10:34:39;5.07;;;4.57;;
16673;SDS011;8450;52.654;10.326;2023-05-07T10:37:08;6.00;;;5.50;;
16673;SDS011;8450;52.654;10.326;2023-05-07T10:39:35;4.97;;;4.47;;
16673;SDS011;8450;52.654;10.326;2023-05-07T10:42:12;6.00;;;5.40;;
16673;SDS011;8450;52.654;10.326;2023-05-07T10:44:44;5.93;;;5.13;;
16673;SDS011;8450;52.654;10.326;2023-05-07T10:47:16;6.27;;;5.77;;
16673;SDS011;8450;52.654;10.326;2023-05-07T10:52:20;5.33;;;4.93;;
16673;SDS011;8450;52.654;10.326;2023-05-07T10:55:18;5.97;;;5.47;;
16673;SDS011;8450;52.654;10.326;2023-05-07T10:58:22;6.63;;;6.03;;
16673;SDS011;8450;52.654;10.326;2023-05-07T11:00:57;6.63;;;6.00;;
16673;SDS011;8450;52.654;10.326;2023-05-07T11:03:29;6.00;;;5.50;;
16673;SDS011;8450;52.654;10.326;2023-05-07T11:06:09;6.47;;;5.90;;
16673;SDS011;8450;52.654;10.326;2023-05-07T11:14:13;6.43;;;5.83;;
16673;SDS011;8450;52.654;10.326;2023-05-07T11:17:05;6.57;;;5.97;;
16673;SDS011;8450;52.654;10.326;2023-05-07T11:19:48;5.60;;;5.10;;
16673;SDS011;8450;52.654;10.326;2023-05-07T11:22:35;5.73;;;5.23;;
16673;SDS011;8450;52.654;10.326;2023-05-07T11:25:10;6.17;;;5.63;;
16673;SDS011;8450;52.654;10.326;2023-05-07T11:27:42;5.80;;;5.30;;
16673;SDS011;8450;52.654;10.326;2023-05-07T11:30:08;6.13;;;5.47;;
16673;SDS011;8450;52.654;10.326;2023-05-07T11:32:34;6.83;;;6.23;;
16673;SDS011;8450;52.654;10.326;2023-05-07T11:35:00;6.27;;;5.77;;
16673;SDS011;8450;52.654;10.326;2023-05-07T11:37:27;6.57;;;6.03;;
16673;SDS011;8450;52.654;10.326;2023-05-07T11:40:02;5.83;;;5.33;;
16673;SDS011;8450;52.654;10.326;2023-05-07T11:42:32;6.10;;;5.60;;
16673;SDS011;8450;52.654;10.326;2023-05-07T11:44:59;6.00;;;5.50;;
16673;SDS011;8450;52.654;10.326;2023-05-07T11:47:25;6.00;;;5.50;;
16673;SDS011;8450;52.654;10.326;2023-05-07T11:49:54;6.10;;;5.60;;
16673;SDS011;8450;52.654;10.326;2023-05-07T11:52:21;6.00;;;5.50;;
16673;SDS011;8450;52.654;10.326;2023-05-07T11:54:57;6.30;;;5.80;;
16673;SDS011;8450;52.654;10.326;2023-05-07T11:57:24;6.37;;;5.80;;
16673;SDS011;8450;52.654;10.326;2023-05-07T11:59:57;5.27;;;4.87;;
16673;SDS011;8450;52.654;10.326;2023-05-07T12:02:23;5.63;;;5.23;;
16673;SDS011;8450;52.654;10.326;2023-05-07T12:04:50;6.53;;;5.93;;
16673;SDS011;8450;52.654;10.326;2023-05-07T12:07:16;5.93;;;5.37;;
16673;SDS011;8450;52.654;10.326;2023-05-07T12:09:43;6.20;;;5.70;;
16673;SDS011;8450;52.654;10.326;2023-05-07T12:12:09;6.63;;;5.67;;
16673;SDS011;8450;52.654;10.326;2023-05-07T12:14:39;6.20;;;5.70;;
16673;SDS011;8450;52.654;10.326;2023-05-07T12:17:05;5.90;;;5.40;;
16673;SDS011;8450;52.654;10.326;2023-05-07T12:19:35;6.27;;;5.67;;
16673;SDS011;8450;52.654;10.326;2023-05-07T12:22:05;5.80;;;5.30;;
16673;SDS011;8450;52.654;10.326;2023-05-07T12:24:45;6.57;;;6.07;;
16673;SDS011;8450;52.654;10.326;2023-05-07T12:27:15;6.20;;;5.70;;
16673;SDS011;8450;52.654;10.326;2023-05-07T12:29:46;6.07;;;5.57;;
16673;SDS011;8450;52.654;10.326;2023-05-07T12:32:15;5.50;;;5.10;;
16673;SDS011;8450;52.654;10.326;2023-05-07T12:34:41;5.87;;;5.37;;
16673;SDS011;8450;52.654;10.326;2023-05-07T12:37:07;5.37;;;4.97;;
16673;SDS011;8450;52.654;10.326;2023-05-07T12:39:33;6.10;;;5.60;;
16673;SDS011;8450;52.654;10.326;2023-05-07T12:41:59;5.20;;;4.80;;
16673;SDS011;8450;52.654;10.326;2023-05-07T12:44:25;5.60;;;5.10;;
16673;SDS011;8450;52.654;10.326;2023-05-07T12:46:55;5.23;;;4.80;;
16673;SDS011;8450;52.654;10.326;2023-05-07T12:49:20;5.30;;;4.90;;
16673;SDS011;8450;52.654;10.326;2023-05-07T12:51:46;5.73;;;5.23;;
16673;SDS011;8450;52.654;10.326;2023-05-07T12:54:13;5.97;;;5.37;;
16673;SDS011;8450;52.654;10.326;2023-05-07T12:56:39;5.30;;;4.90;;
16673;SDS011;8450;52.654;10.326;2023-05-07T12:59:05;5.77;;;5.27;;
16673;SDS011;8450;52.654;10.326;2023-05-07T13:01:30;5.20;;;4.80;;
16673;SDS011;8450;52.654;10.326;2023-05-07T13:04:00;5.97;;;5.53;;
16673;SDS011;8450;52.654;10.326;2023-05-07T13:06:27;5.73;;;5.23;;
16673;SDS011;8450;52.654;10.326;2023-05-07T13:08:53;5.07;;;4.67;;
16673;SDS011;8450;52.654;10.326;2023-05-07T13:11:18;6.20;;;5.70;;
16673;SDS011;8450;52.654;10.326;2023-05-07T13:13:44;4.90;;;4.50;;
16673;SDS011;8450;52.654;10.326;2023-05-07T13:16:10;5.17;;;4.60;;
16673;SDS011;8450;52.654;10.326;2023-05-07T13:18:37;5.10;;;4.70;;
16673;SDS011;8450;52.654;10.326;2023-05-07T13:21:04;5.20;;;4.70;;
16673;SDS011;8450;52.654;10.326;2023-05-07T13:23:30;5.43;;;5.03;;
16673;SDS011;8450;52.654;10.326;2023-05-07T13:25:55;5.00;;;4.60;;
16673;SDS011;8450;52.654;10.326;2023-05-07T13:28:21;5.90;;;5.40;;
16673;SDS011;8450;52.654;10.326;2023-05-07T13:30:51;4.80;;;4.40;;
16673;SDS011;8450;52.654;10.326;2023-05-07T13:33:17;4.77;;;4.37;;
16673;SDS011;8450;52.654;10.326;2023-05-07T13:35:43;4.97;;;4.57;;
16673;SDS011;8450;52.654;10.326;2023-05-07T13:38:09;5.30;;;4.77;;
16673;SDS011;8450;52.654;10.326;2023-05-07T13:40:34;4.93;;;4.53;;
16673;SDS011;8450;52.654;10.326;2023-05-07T13:43:00;4.80;;;4.40;;
16673;SDS011;8450;52.654;10.326;2023-05-07T13:45:29;4.97;;;4.57;;
16673;SDS011;8450;52.654;10.326;2023-05-07T13:47:54;4.80;;;4.40;;
16673;SDS011;8450;52.654;10.326;2023-05-07T13:50:21;5.07;;;4.60;;
16673;SDS011;8450;52.654;10.326;2023-05-07T13:52:46;4.33;;;4.03;;
16673;SDS011;8450;52.654;10.326;2023-05-07T13:55:18;4.27;;;3.93;;
16673;SDS011;8450;52.654;10.326;2023-05-07T13:57:53;5.00;;;4.60;;
16673;SDS011;8450;52.654;10.326;2023-05-07T14:00:23;4.63;;;4.23;;
16673;SDS011;8450;52.654;10.326;2023-05-07T14:02:52;4.67;;;4.27;;
16673;SDS011;8450;52.654;10.326;2023-05-07T14:05:18;4.90;;;4.50;;
16673;SDS011;8450;52.654;10.326;2023-05-07T14:07:45;4.80;;;4.50;;
16673;SDS011;8450;52.654;10.326;2023-05-07T14:10:11;4.63;;;4.27;;
16673;SDS011;8450;52.654;10.326;2023-05-07T14:12:38;4.90;;;4.50;;
16673;SDS011;8450;52.654;10.326;2023-05-07T14:15:03;4.50;;;4.10;;
16673;SDS011;8450;52.654;10.326;2023-05-07T14:17:29;4.47;;;4.07;;
16673;SDS011;8450;52.654;10.326;2023-05-07T14:19:55;4.20;;;3.90;;
16673;SDS011;8450;52.654;10.326;2023-05-07T14:22:21;4.80;;;4.40;;
16673;SDS011;8450;52.654;10.326;2023-05-07T14:24:47;4.17;;;3.87;;
16673;SDS011;8450;52.654;10.326;2023-05-07T14:27:13;4.87;;;4.47;;
16673;SDS011;8450;52.654;10.326;2023-05-07T14:29:39;4.53;;;4.13;;
16673;SDS011;8450;52.654;10.326;2023-05-07T14:32:04;4.70;;;4.30;;
16673;SDS011;8450;52.654;10.326;2023-05-07T14:34:31;4.23;;;3.83;;
16673;SDS011;8450;52.654;10.326;2023-05-07T14:36:57;4.33;;;3.93;;
16673;SDS011;8450;52.654;10.326;2023-05-07T14:39:23;4.73;;;4.33;;
16673;SDS011;8450;52.654;10.326;2023-05-07T14:41:48;4.17;;;3.77;;
16673;SDS011;8450;52.654;10.326;2023-05-07T14:44:14;4.33;;;3.97;;
16673;SDS011;8450;52.654;10.326;2023-05-07T14:46:39;4.60;;;4.20;;
16673;SDS011;8450;52.654;10.326;2023-05-07T14:49:05;5.47;;;4.97;;
16673;SDS011;8450;52.654;10.326;2023-05-07T14:51:31;4.40;;;4.00;;
16673;SDS011;8450;52.654;10.326;2023-05-07T14:53:58;4.57;;;4.17;;
16673;SDS011;8450;52.654;10.326;2023-05-07T14:56:23;4.50;;;4.10;;
16673;SDS011;8450;52.654;10.326;2023-05-07T14:58:49;4.77;;;4.10;;
16673;SDS011;8450;52.654;10.326;2023-05-07T15:01:15;4.47;;;4.07;;
16673;SDS011;8450;52.654;10.326;2023-05-07T15:03:40;4.50;;;4.10;;
16673;SDS011;8450;52.654;10.326;2023-05-07T15:06:06;3.67;;;3.43;;
16673;SDS011;8450;52.654;10.326;2023-05-07T15:08:31;4.43;;;3.57;;
16673;SDS011;8450;52.654;10.326;2023-05-07T15:10:57;4.20;;;3.90;;
16673;SDS011;8450;52.654;10.326;2023-05-07T15:13:22;3.97;;;3.67;;
16673;SDS011;8450;52.654;10.326;2023-05-07T15:15:48;4.53;;;4.13;;
16673;SDS011;8450;52.654;10.326;2023-05-07T15:18:14;3.57;;;3.27;;
16673;SDS011;8450;52.654;10.326;2023-05-07T15:20:41;3.80;;;3.50;;
16673;SDS011;8450;52.654;10.326;2023-05-07T15:23:07;4.20;;;3.90;;
16673;SDS011;8450;52.654;10.326;2023-05-07T15:25:42;4.03;;;3.73;;
16673;SDS011;8450;52.654;10.326;2023-05-07T15:28:08;3.80;;;3.13;;
16673;SDS011;8450;52.654;10.326;2023-05-07T15:30:33;4.40;;;4.00;;
16673;SDS011;8450;52.654;10.326;2023-05-07T15:33:00;4.20;;;3.90;;
16673;SDS011;8450;52.654;10.326;2023-05-07T15:35:26;4.20;;;3.80;;
16673;SDS011;8450;52.654;10.326;2023-05-07T15:37:52;4.27;;;3.73;;
16673;SDS011;8450;52.654;10.326;2023-05-07T15:40:18;3.60;;;3.40;;
16673;SDS011;8450;52.654;10.326;2023-05-07T15:42:44;3.73;;;3.37;;
16673;SDS011;8450;52.654;10.326;2023-05-07T15:45:10;3.83;;;3.53;;
16673;SDS011;8450;52.654;10.326;2023-05-07T15:47:36;4.10;;;3.80;;
16673;SDS011;8450;52.654;10.326;2023-05-07T15:50:02;4.47;;;4.00;;
16673;SDS011;8450;52.654;10.326;2023-05-07T15:52:28;4.27;;;3.97;;
16673;SDS011;8450;52.654;10.326;2023-05-07T15:54:54;4.60;;;4.27;;
16673;SDS011;8450;52.654;10.326;2023-05-07T15:57:21;4.23;;;3.83;;
16673;SDS011;8450;52.654;10.326;2023-05-07T15:59:47;4.37;;;4.00;;
16673;SDS011;8450;52.654;10.326;2023-05-07T16:02:12;4.63;;;4.23;;
16673;SDS011;8450;52.654;10.326;2023-05-07T16:04:38;5.93;;;4.40;;
16673;SDS011;8450;52.654;10.326;2023-05-07T16:07:04;3.97;;;3.67;;
16673;SDS011;8450;52.654;10.326;2023-05-07T16:09:30;4.77;;;3.93;;
16673;SDS011;8450;52.654;10.326;2023-05-07T16:11:56;4.30;;;4.00;;
16673;SDS011;8450;52.654;10.326;2023-05-07T16:14:22;4.27;;;3.87;;
16673;SDS011;8450;52.654;10.326;2023-05-07T16:16:48;3.97;;;3.53;;
16673;SDS011;8450;52.654;10.326;2023-05-07T16:19:14;5.03;;;4.00;;
16673;SDS011;8450;52.654;10.326;2023-05-07T16:21:39;3.80;;;3.43;;
16673;SDS011;8450;52.654;10.326;2023-05-07T16:24:05;3.97;;;3.67;;
16673;SDS011;8450;52.654;10.326;2023-05-07T16:26:30;3.53;;;3.23;;
16673;SDS011;8450;52.654;10.326;2023-05-07T16:28:56;3.80;;;3.50;;
16673;SDS011;8450;52.654;10.326;2023-05-07T16:31:22;3.60;;;3.30;;
16673;SDS011;8450;52.654;10.326;2023-05-07T16:33:49;3.63;;;3.33;;
16673;SDS011;8450;52.654;10.326;2023-05-07T16:36:15;3.73;;;3.43;;
16673;SDS011;8450;52.654;10.326;2023-05-07T16:38:40;4.33;;;3.80;;
16673;SDS011;8450;52.654;10.326;2023-05-07T16:41:06;3.70;;;3.40;;
16673;SDS011;8450;52.654;10.326;2023-05-07T16:43:32;3.47;;;3.17;;
16673;SDS011;8450;52.654;10.326;2023-05-07T16:45:57;3.60;;;3.30;;
16673;SDS011;8450;52.654;10.326;2023-05-07T16:48:23;3.80;;;3.50;;
16673;SDS011;8450;52.654;10.326;2023-05-07T16:50:49;3.50;;;3.23;;
16673;SDS011;8450;52.654;10.326;2023-05-07T16:53:14;3.70;;;3.30;;
16673;SDS011;8450;52.654;10.326;2023-05-07T16:55:40;3.30;;;3.00;;
16673;SDS011;8450;52.654;10.326;2023-05-07T16:58:06;3.33;;;3.03;;
16673;SDS011;8450;52.654;10.326;2023-05-07T17:00:33;3.70;;;3.40;;
16673;SDS011;8450;52.654;10.326;2023-05-07T17:02:58;3.80;;;3.50;;
16673;SDS011;8450;52.654;10.326;2023-05-07T17:05:24;3.50;;;3.20;;
16673;SDS011;8450;52.654;10.326;2023-05-07T17:07:50;3.60;;;3.40;;
16673;SDS011;8450;52.654;10.326;2023-05-07T17:10:16;3.93;;;3.53;;
16673;SDS011;8450;52.654;10.326;2023-05-07T17:12:42;4.20;;;3.80;;
16673;SDS011;8450;52.654;10.326;2023-05-07T17:15:07;3.80;;;3.50;;
16673;SDS011;8450;52.654;10.326;2023-05-07T17:17:33;4.03;;;3.57;;
16673;SDS011;8450;52.654;10.326;2023-05-07T17:19:59;3.90;;;3.60;;
16673;SDS011;8450;52.654;10.326;2023-05-07T17:22:25;4.30;;;3.60;;
16673;SDS011;8450;52.654;10.326;2023-05-07T17:24:51;3.70;;;3.40;;
16673;SDS011;8450;52.654;10.326;2023-05-07T17:27:17;3.90;;;3.60;;
16673;SDS011;8450;52.654;10.326;2023-05-07T17:29:42;3.40;;;3.20;;
16673;SDS011;8450;52.654;10.326;2023-05-07T17:32:08;3.80;;;3.50;;
16673;SDS011;8450;52.654;10.326;2023-05-07T17:34:34;4.00;;;3.40;;
16673;SDS011;8450;52.654;10.326;2023-05-07T17:36:59;4.33;;;4.03;;
16673;SDS011;8450;52.654;10.326;2023-05-07T17:39:25;4.47;;;4.10;;
16673;SDS011;8450;52.654;10.326;2023-05-07T17:41:50;4.00;;;3.70;;
16673;SDS011;8450;52.654;10.326;2023-05-07T17:44:16;4.80;;;4.33;;
16673;SDS011;8450;52.654;10.326;2023-05-07T17:46:42;4.57;;;4.20;;
16673;SDS011;8450;52.654;10.326;2023-05-07T17:49:07;4.87;;;4.47;;
16673;SDS011;8450;52.654;10.326;2023-05-07T17:51:33;4.23;;;3.87;;
16673;SDS011;8450;52.654;10.326;2023-05-07T17:53:58;4.33;;;3.97;;
16673;SDS011;8450;52.654;10.326;2023-05-07T17:56:24;4.43;;;4.13;;
16673;SDS011;8450;52.654;10.326;2023-05-07T17:58:50;4.63;;;4.33;;
16673;SDS011;8450;52.654;10.326;2023-05-07T18:01:18;4.20;;;3.90;;
16673;SDS011;8450;52.654;10.326;2023-05-07T18:03:44;4.20;;;3.90;;
16673;SDS011;8450;52.654;10.326;2023-05-07T18:06:10;4.30;;;4.00;;
16673;SDS011;8450;52.654;10.326;2023-05-07T18:08:41;4.50;;;4.10;;
16673;SDS011;8450;52.654;10.326;2023-05-07T18:11:07;4.10;;;3.80;;
16673;SDS011;8450;52.654;10.326;2023-05-07T18:13:33;4.27;;;3.87;;
16673;SDS011;8450;52.654;10.326;2023-05-07T18:15:59;4.57;;;4.27;;
16673;SDS011;8450;52.654;10.326;2023-05-07T18:18:24;4.33;;;4.03;;
